createdAt,value
2022-12-08T00:01:32.446Z,99984.69
2022-12-08T00:04:01.289Z,100047.72
2022-12-08T00:06:50.203Z,100051.03
2022-12-08T00:09:23.132Z,100048.38
2022-12-08T00:11:53.356Z,100044.81
2022-12-08T00:14:23.548Z,100047.22
2022-12-08T00:16:51.547Z,100047.09
2022-12-08T00:19:19.649Z,99987.09
2022-12-08T00:21:48.944Z,100050.91
2022-12-08T00:24:17.745Z,100033.34
2022-12-08T00:26:45.880Z,99992.19
2022-12-08T00:29:17.497Z,100037.53
2022-12-08T00:31:45.814Z,100034.22
2022-12-08T00:34:14.040Z,100060.09
2022-12-08T00:36:42.153Z,100047.75
2022-12-08T00:39:12.125Z,100055.75
2022-12-08T00:41:57.669Z,100055.63
2022-12-08T00:44:25.837Z,100050.53
2022-12-08T00:46:53.674Z,100053.09
2022-12-08T00:49:21.934Z,100052.19
2022-12-08T00:51:50.163Z,100026.47
2022-12-08T00:54:20.231Z,100052.97
2022-12-08T00:56:48.196Z,100057.03
2022-12-08T00:59:16.352Z,100052.06
2022-12-08T01:01:45.986Z,100059.59
2022-12-08T01:04:16.238Z,100049.25
2022-12-08T01:06:45.360Z,100055.25
2022-12-08T01:09:14.589Z,100047.34
2022-12-08T01:11:44.611Z,100049.91
2022-12-08T01:14:13.253Z,100034.75
2022-12-08T01:16:42.200Z,100048.88
2022-12-08T01:19:11.835Z,100042.00
2022-12-08T01:21:40.445Z,100034.09
2022-12-08T01:24:11.525Z,100025.81
2022-12-08T01:26:39.711Z,100034.88
2022-12-08T01:29:09.258Z,100033.22
2022-12-08T01:31:37.300Z,100004.94
2022-12-08T01:34:05.304Z,100025.19
2022-12-08T01:36:37.097Z,99981.63
2022-12-08T01:39:07.216Z,100001.88
2022-12-08T01:41:37.605Z,100019.56
2022-12-08T01:44:43.982Z,100016.00
2022-12-08T01:47:13.531Z,100020.97
2022-12-08T01:49:41.321Z,99980.72
2022-12-08T01:52:17.843Z,100014.88
2022-12-08T01:54:49.883Z,100016.41
2022-12-08T01:57:21.512Z,100011.03
2022-12-08T01:59:53.100Z,100014.47
2022-12-08T02:02:22.787Z,100018.69
2022-12-08T02:04:50.827Z,100014.22
2022-12-08T02:07:19.692Z,100016.66
2022-12-08T02:09:47.912Z,99999.81
2022-12-08T02:12:16.092Z,100014.72
2022-12-08T02:14:44.244Z,100012.94
2022-12-08T02:17:30.540Z,100012.06
2022-12-08T02:20:35.561Z,100002.13
2022-12-08T02:23:12.467Z,99999.31
2022-12-08T02:25:52.161Z,100013.31
2022-12-08T02:28:43.690Z,100010.66
2022-12-08T02:31:28.114Z,100012.16
2022-12-08T02:34:18.680Z,100014.59
2022-12-08T02:36:55.387Z,100011.78
2022-12-08T02:39:32.313Z,100009.25
2022-12-08T02:42:09.588Z,100005.66
2022-12-08T02:44:43.145Z,100007.19
2022-12-08T02:47:14.010Z,99970.13
2022-12-08T02:49:43.389Z,99987.06
2022-12-08T02:52:40.235Z,100012.03
2022-12-08T02:55:14.581Z,100000.44
2022-12-08T02:57:52.970Z,99847.81
2022-12-08T03:00:23.479Z,100000.19
2022-12-08T03:03:04.879Z,100004.00
2022-12-08T03:05:52.328Z,100009.97
2022-12-08T03:08:25.790Z,100009.22
2022-12-08T03:11:01.968Z,100018.50
2022-12-08T03:13:35.096Z,100018.50
2022-12-08T03:16:08.645Z,100015.06
2022-12-08T03:18:43.053Z,100014.06
2022-12-08T03:21:17.596Z,100018.88
2022-12-08T03:23:47.616Z,99986.38
2022-12-08T03:26:21.817Z,100027.78
2022-12-08T03:28:49.829Z,100024.22
2022-12-08T03:31:19.630Z,100025.09
2022-12-08T03:33:53.305Z,100011.59
2022-12-08T03:36:23.632Z,100021.53
2022-12-08T03:38:53.846Z,100024.56
2022-12-08T03:41:23.237Z,100018.47
2022-12-08T03:43:52.926Z,100017.44
2022-12-08T03:48:49.447Z,100000.63
2022-12-08T03:51:17.551Z,100020.63
2022-12-08T03:53:47.303Z,100016.41
2022-12-08T03:56:20.972Z,100012.09
2022-12-08T03:58:48.764Z,100015.41
2022-12-08T04:01:16.673Z,100017.81
2022-12-08T04:03:44.709Z,100025.44
2022-12-08T04:06:12.660Z,100022.13
2022-12-08T04:08:41.195Z,99974.63
2022-12-08T04:11:10.693Z,100023.16
2022-12-08T04:13:39.984Z,100020.75
2022-12-08T04:16:08.330Z,99977.34
2022-12-08T04:18:37.007Z,99934.66
2022-12-08T04:21:05.009Z,100000.63
2022-12-08T04:23:32.899Z,99995.03
2022-12-08T04:26:00.871Z,100017.19
2022-12-08T04:28:30.496Z,99982.56
2022-12-08T04:30:58.653Z,100012.09
2022-12-08T04:33:26.724Z,100011.31
2022-12-08T04:35:54.545Z,99987.41
2022-12-08T04:38:22.795Z,99949.31
2022-12-08T04:40:50.770Z,100009.69
2022-12-08T04:43:18.729Z,100008.03
2022-12-08T04:45:48.369Z,100011.31
2022-12-08T04:48:16.695Z,100007.88
2022-12-08T04:50:46.002Z,100005.34
2022-12-08T04:53:14.675Z,100012.09
2022-12-08T04:55:44.973Z,99993.25
2022-12-08T04:58:14.807Z,100002.03
2022-12-08T05:00:43.540Z,100009.69
2022-12-08T05:03:13.110Z,100008.78
2022-12-08T05:05:41.978Z,100008.78
2022-12-08T05:08:10.551Z,99985.00
2022-12-08T05:10:38.875Z,100002.66
2022-12-08T05:13:06.673Z,99993.13
2022-12-08T05:15:34.616Z,99999.38
2022-12-08T05:18:02.542Z,100003.56
2022-12-08T05:20:31.729Z,99997.31
2022-12-08T05:22:59.688Z,99983.97
2022-12-08T05:25:27.802Z,99975.41
2022-12-08T05:28:17.714Z,100009.28
2022-12-08T05:30:43.629Z,100004.19
2022-12-08T05:33:11.419Z,100010.94
2022-12-08T05:35:40.828Z,100009.16
2022-12-08T05:38:08.916Z,100024.41
2022-12-08T05:40:38.633Z,100018.44
2022-12-08T05:43:06.716Z,100022.75
2022-12-08T05:45:35.042Z,100022.00
2022-12-08T05:48:03.017Z,100024.56
2022-12-08T05:50:30.903Z,100020.00
2022-12-08T05:53:00.306Z,100028.63
2022-12-08T05:55:28.155Z,100027.63
2022-12-08T05:57:55.958Z,100035.00
2022-12-08T06:00:24.105Z,100039.06
2022-12-08T06:02:52.029Z,100043.88
2022-12-08T06:05:20.154Z,100046.41
2022-12-08T06:07:48.265Z,100044.63
2022-12-08T06:10:17.507Z,100030.84
2022-12-08T06:12:45.375Z,100042.84
2022-12-08T06:15:13.400Z,100052.13
2022-12-08T06:17:41.206Z,100054.69
2022-12-08T06:20:09.903Z,99984.31
2022-12-08T06:22:38.459Z,100049.59
2022-12-08T06:25:10.094Z,100045.41
2022-12-08T06:27:40.035Z,100048.06
2022-12-08T06:30:09.114Z,100038.25
2022-12-08T06:32:37.517Z,100044.63
2022-12-08T06:35:06.289Z,100045.78
2022-12-08T06:37:34.136Z,99989.31
2022-12-08T06:40:02.248Z,100038.25
2022-12-08T06:42:46.769Z,100056.88
2022-12-08T06:45:18.102Z,100055.97
2022-12-08T06:47:46.481Z,100060.16
2022-12-08T06:50:15.338Z,100066.16
2022-12-08T06:52:54.344Z,100049.47
2022-12-08T06:55:59.462Z,100066.91
2022-12-08T06:58:17.018Z,100067.78
2022-12-08T07:00:46.797Z,100006.22
2022-12-08T07:03:14.866Z,100069.44
2022-12-08T07:05:42.714Z,100055.16
2022-12-08T07:08:13.626Z,100070.06
2022-12-08T07:10:41.952Z,100060.66
2022-12-08T07:13:09.797Z,100062.19
2022-12-08T07:15:38.022Z,100061.91
2022-12-08T07:18:07.271Z,100083.28
2022-12-08T07:20:35.107Z,100072.22
2022-12-08T07:23:03.234Z,100070.56
2022-12-08T07:25:31.072Z,100073.88
2022-12-08T07:27:58.994Z,100081.38
2022-12-08T07:30:27.087Z,100072.09
2022-12-08T07:32:57.288Z,99955.22
2022-12-08T07:35:26.764Z,100073.09
2022-12-08T07:37:54.745Z,100065.59
2022-12-08T07:40:22.585Z,100079.63
2022-12-08T07:42:50.375Z,100072.25
2022-12-08T07:45:18.681Z,100056.31
2022-12-08T07:47:48.035Z,100075.22
2022-12-08T07:50:15.975Z,100073.53
2022-12-08T07:52:45.431Z,100077.09
2022-12-08T07:55:13.228Z,100077.22
2022-12-08T07:57:41.032Z,100074.06
2022-12-08T08:00:10.122Z,100076.72
2022-12-08T08:02:38.114Z,100081.19
2022-12-08T08:05:07.140Z,100072.81
2022-12-08T08:07:37.007Z,100084.75
2022-12-08T08:10:08.239Z,100079.53
2022-12-08T08:12:36.707Z,100072.31
2022-12-08T08:15:07.568Z,100044.69
2022-12-08T08:17:36.696Z,100070.91
2022-12-08T08:20:07.220Z,100049.50
2022-12-08T08:22:36.333Z,100084.94
2022-12-08T08:25:04.572Z,100085.06
2022-12-08T08:27:33.932Z,100085.19
2022-12-08T08:30:02.625Z,100074.75
2022-12-08T08:32:35.604Z,100084.69
2022-12-08T08:35:03.776Z,100078.97
2022-12-08T08:37:31.903Z,100085.34
2022-12-08T08:39:59.882Z,100067.16
2022-12-08T08:42:27.856Z,100079.41
2022-12-08T08:44:57.100Z,100073.81
2022-12-08T08:47:25.063Z,100080.81
2022-12-08T08:49:53.296Z,100065.16
2022-12-08T08:52:21.186Z,100081.47
2022-12-08T08:54:49.013Z,100081.22
2022-12-08T08:57:23.670Z,100070.53
2022-12-08T08:59:53.408Z,100072.56
2022-12-08T09:02:23.348Z,100044.66
2022-12-08T09:04:51.841Z,100062.25
2022-12-08T09:07:19.831Z,100074.75
2022-12-08T09:09:47.784Z,100080.09
2022-12-08T09:12:15.626Z,100058.03
2022-12-08T09:14:43.572Z,100016.75
2022-12-08T09:17:11.514Z,100085.00
2022-12-08T09:19:40.715Z,100076.03
2022-12-08T09:22:11.294Z,99977.97
2022-12-08T09:24:39.233Z,100082.00
2022-12-08T09:27:07.040Z,100081.44
2022-12-08T09:29:36.341Z,100060.19
2022-12-08T09:32:04.736Z,100058.03
2022-12-08T09:34:32.717Z,100072.38
2022-12-08T09:37:02.104Z,100068.72
2022-12-08T09:39:29.995Z,100066.22
2022-12-08T09:42:00.806Z,100066.06
2022-12-08T09:44:57.481Z,100059.06
2022-12-08T09:47:35.287Z,100059.16
2022-12-08T09:50:08.883Z,100064.50
2022-12-08T09:52:42.625Z,100060.69
2022-12-08T09:55:18.588Z,100055.56
2022-12-08T09:58:01.841Z,100052.44
2022-12-08T10:00:30.116Z,100058.91
2022-12-08T10:02:58.121Z,100059.91
2022-12-08T10:05:28.573Z,100054.34
2022-12-08T10:08:09.617Z,100024.94
2022-12-08T10:10:42.932Z,100057.09
2022-12-08T10:13:20.515Z,100058.03
2022-12-08T10:15:54.545Z,100073.97
2022-12-08T10:18:28.314Z,100063.47
2022-12-08T10:21:01.192Z,100068.56
2022-12-08T10:23:36.027Z,100025.13
2022-12-08T10:26:06.646Z,100068.84
2022-12-08T10:28:39.957Z,100000.78
2022-12-08T10:31:17.436Z,100072.81
2022-12-08T10:33:47.491Z,100070.13
2022-12-08T10:36:15.600Z,100070.66
2022-12-08T10:38:44.855Z,100066.97
2022-12-08T10:41:18.089Z,100069.53
2022-12-08T10:43:49.538Z,100046.59
2022-12-08T10:46:19.982Z,100063.41
2022-12-08T10:48:54.125Z,100080.22
2022-12-08T10:51:29.634Z,100077.03
2022-12-08T10:53:59.447Z,100025.13
2022-12-08T10:56:29.463Z,100037.59
2022-12-08T10:59:14.185Z,100086.97
2022-12-08T11:01:43.977Z,100072.41
2022-12-08T11:04:16.863Z,100088.34
2022-12-08T11:06:45.775Z,100056.34
2022-12-08T11:09:46.877Z,100087.03
2022-12-08T11:12:16.062Z,100088.81
2022-12-08T11:14:56.166Z,100087.25
2022-12-08T11:17:27.700Z,100091.59
2022-12-08T11:20:00.465Z,100074.91
2022-12-08T11:22:32.202Z,100072.13
2022-12-08T11:25:04.123Z,100097.19
2022-12-08T11:27:34.710Z,100050.72
2022-12-08T11:30:04.665Z,100079.72
2022-12-08T11:32:35.801Z,100095.13
2022-12-08T11:35:06.955Z,100099.56
2022-12-08T11:37:40.192Z,100091.78
2022-12-08T11:40:17.649Z,100090.41
2022-12-08T11:42:55.976Z,100097.97
2022-12-08T11:45:28.429Z,100097.59
2022-12-08T11:48:05.091Z,100099.38
2022-12-08T11:50:42.288Z,100094.63
2022-12-08T11:53:18.095Z,100093.88
2022-12-08T11:55:53.732Z,100094.09
2022-12-08T11:58:28.443Z,100099.47
2022-12-08T12:00:56.628Z,100093.28
2022-12-08T12:03:30.572Z,100100.31
2022-12-08T12:09:17.682Z,100088.25
2022-12-08T12:12:16.034Z,100096.94
2022-12-08T12:15:20.309Z,100098.41
2022-12-08T12:17:52.260Z,100093.84
